Time;durP1;ratioP1;P1;durP2;ratioP2;P2;SDS_P1;SDS_P2;PMS_P1;PMS_P2;Temp;Humidity;BMP_temperature;BMP_pressure;BME280_temperature;BME280_humidity;BME280_pressure;Samples;Min_cycle;Max_cycle;Signal;HPM_P1;HPM_P2
2022/01/18 00:02:08;;;;;;;4.25;1.30;;;;;;;;;;4955851;29;20115;-65
2022/01/18 00:04:35;;;;;;;2.95;1.60;;;;;;;;;;4955590;29;20034;-65
2022/01/18 00:07:01;;;;;;;3.58;1.00;;;;;;;;;;4954456;28;20028;-64
2022/01/18 00:09:28;;;;;;;4.53;1.20;;;;;;;;;;4955123;29;20158;-64
2022/01/18 00:12:13;;;;;;;3.80;1.48;;;;;;;;;;4955115;29;20027;-64
2022/01/18 00:14:54;;;;;;;2.97;1.10;;;;;;;;;;4955050;29;20031;-65
2022/01/18 00:17:40;;;;;;;4.13;1.57;;;;;;;;;;4955423;29;20047;-65
2022/01/18 00:20:09;;;;;;;2.90;1.08;;;;;;;;;;4955437;29;20031;-64
2022/01/18 00:22:35;;;;;;;5.45;1.98;;;;;;;;;;4955394;29;20121;-64
2022/01/18 00:25:02;;;;;;;2.72;1.38;;;;;;;;;;4955319;29;20032;-64
2022/01/18 00:27:28;;;;;;;4.25;1.58;;;;;;;;;;4955151;29;20027;-65
2022/01/18 00:33:05;;;;;;;5.60;1.50;;;;;;;;;;4858609;29;20190;-65
2022/01/18 00:35:34;;;;;;;6.45;1.63;;;;;;;;;;4858388;29;20554;-64
2022/01/18 00:38:00;;;;;;;2.78;1.23;;;;;;;;;;4858646;29;20538;-64
2022/01/18 00:40:26;;;;;;;2.60;1.33;;;;;;;;;;4858635;29;20033;-64
2022/01/18 00:42:54;;;;;;;4.03;1.60;;;;;;;;;;4858337;29;20033;-64
2022/01/18 00:45:20;;;;;;;3.95;1.52;;;;;;;;;;4858539;29;20482;-65
2022/01/18 00:47:46;;;;;;;6.28;1.58;;;;;;;;;;4858460;29;20112;-65
2022/01/18 00:50:12;;;;;;;4.55;1.92;;;;;;;;;;4858434;29;20073;-64
2022/01/18 00:52:42;;;;;;;3.67;1.60;;;;;;;;;;4858597;29;20041;-65
2022/01/18 00:55:10;;;;;;;6.85;1.83;;;;;;;;;;4858204;29;20043;-64
2022/01/18 00:57:36;;;;;;;7.72;1.60;;;;;;;;;;4858115;29;20058;-65
2022/01/18 01:00:02;;;;;;;4.60;1.70;;;;;;;;;;4858328;29;20038;-65
2022/01/18 01:02:28;;;;;;;3.97;1.70;;;;;;;;;;4858201;29;20109;-65
2022/01/18 01:04:54;;;;;;;3.33;1.60;;;;;;;;;;4858279;29;20069;-64
2022/01/18 01:07:22;;;;;;;5.07;1.55;;;;;;;;;;4861514;29;20550;-65
2022/01/18 01:09:48;;;;;;;3.50;1.48;;;;;;;;;;4954663;29;20035;-65
2022/01/18 01:12:17;;;;;;;4.55;1.90;;;;;;;;;;4954379;29;20032;-65
2022/01/18 01:14:47;;;;;;;3.90;1.63;;;;;;;;;;4954408;29;20031;-65
2022/01/18 01:42:02;;;;;;;4.07;1.77;;;;;;;;;;4953730;29;20574;-65
2022/01/18 01:44:46;;;;;;;4.18;1.40;;;;;;;;;;4953802;29;20022;-63
2022/01/18 01:47:17;;;;;;;4.57;1.30;;;;;;;;;;4953559;29;20024;-63
2022/01/18 01:49:43;;;;;;;4.85;2.08;;;;;;;;;;4953753;29;20058;-64
2022/01/18 01:52:10;;;;;;;6.05;1.73;;;;;;;;;;4953806;29;20434;-64
2022/01/18 01:54:37;;;;;;;8.05;1.73;;;;;;;;;;4953893;29;20030;-64
2022/01/18 01:57:05;;;;;;;4.68;1.83;;;;;;;;;;4953607;29;20042;-65
2022/01/18 01:59:32;;;;;;;4.30;1.65;;;;;;;;;;4953974;29;20157;-64
2022/01/18 02:01:58;;;;;;;4.38;1.60;;;;;;;;;;4953563;29;20126;-65
2022/01/18 02:04:24;;;;;;;3.78;1.50;;;;;;;;;;4953676;29;20027;-64
2022/01/18 02:06:50;;;;;;;5.30;1.80;;;;;;;;;;4953704;29;20042;-64
2022/01/18 02:09:18;;;;;;;4.13;1.58;;;;;;;;;;4953706;29;20432;-63
2022/01/18 02:11:44;;;;;;;6.95;2.00;;;;;;;;;;4953513;29;20513;-63
2022/01/18 02:14:16;;;;;;;5.03;1.70;;;;;;;;;;4953430;29;20169;-64
2022/01/18 02:22:12;;;;;;;6.00;2.10;;;;;;;;;;4954123;29;20050;-64
2022/01/18 02:24:38;;;;;;;5.55;1.92;;;;;;;;;;4953383;29;20486;-63
2022/01/18 02:27:05;;;;;;;6.22;1.92;;;;;;;;;;4953442;29;20031;-65
2022/01/18 02:29:31;;;;;;;4.15;1.80;;;;;;;;;;4952627;28;20082;-64
2022/01/18 02:31:57;;;;;;;5.60;2.00;;;;;;;;;;4953302;29;20038;-65
2022/01/18 02:34:24;;;;;;;6.07;2.10;;;;;;;;;;4952984;29;20019;-64
2022/01/18 02:36:50;;;;;;;4.57;2.05;;;;;;;;;;4953323;29;20177;-65
2022/01/18 02:39:23;;;;;;;5.45;2.35;;;;;;;;;;4953229;29;20387;-64
2022/01/18 02:42:08;;;;;;;5.15;1.90;;;;;;;;;;4952986;29;20387;-65
2022/01/18 02:44:35;;;;;;;3.92;1.75;;;;;;;;;;4953242;29;20026;-65
2022/01/18 02:47:01;;;;;;;5.78;1.83;;;;;;;;;;4953074;29;20372;-64
2022/01/18 02:49:28;;;;;;;4.72;1.60;;;;;;;;;;4952784;29;20494;-65
2022/01/18 02:51:55;;;;;;;6.72;1.80;;;;;;;;;;4952941;29;20404;-65
2022/01/18 02:54:21;;;;;;;4.38;2.00;;;;;;;;;;4952599;29;20031;-65
2022/01/18 02:56:50;;;;;;;7.35;1.60;;;;;;;;;;4952902;29;20042;-64
2022/01/18 03:04:28;;;;;;;5.50;1.85;;;;;;;;;;4954281;29;20102;-65
2022/01/18 03:06:54;;;;;;;4.97;1.75;;;;;;;;;;4953073;29;20027;-64
2022/01/18 03:09:20;;;;;;;3.95;1.67;;;;;;;;;;4952642;29;20550;-64
2022/01/18 03:11:46;;;;;;;5.43;1.80;;;;;;;;;;4952781;29;20123;-64
2022/01/18 03:14:12;;;;;;;4.72;1.63;;;;;;;;;;4952934;29;20058;-64
2022/01/18 03:16:38;;;;;;;4.35;1.70;;;;;;;;;;4935296;29;20444;-64
2022/01/18 03:19:04;;;;;;;6.47;1.80;;;;;;;;;;4952647;29;20086;-64
2022/01/18 03:21:30;;;;;;;5.93;1.77;;;;;;;;;;4953148;29;20031;-64
2022/01/18 03:24:12;;;;;;;5.10;1.67;;;;;;;;;;4952520;29;20031;-64
2022/01/18 03:29:26;;;;;;;4.68;1.70;;;;;;;;;;4952805;28;20490;-64
2022/01/18 03:31:52;;;;;;;4.65;1.90;;;;;;;;;;4952583;29;20037;-64
2022/01/18 03:34:18;;;;;;;5.95;1.83;;;;;;;;;;4952041;29;20384;-64
2022/01/18 03:36:44;;;;;;;8.43;2.38;;;;;;;;;;4952476;29;20040;-64
2022/01/18 03:39:11;;;;;;;7.43;2.30;;;;;;;;;;4953105;29;20413;-64
2022/01/18 03:41:37;;;;;;;5.63;2.00;;;;;;;;;;4955739;28;20051;-63
2022/01/18 03:44:03;;;;;;;12.48;5.22;;;;;;;;;;4955962;29;20399;-64
2022/01/18 03:46:31;;;;;;;7.97;2.60;;;;;;;;;;4956228;29;20035;-64
2022/01/18 03:48:58;;;;;;;5.65;2.47;;;;;;;;;;4956373;29;20115;-64
2022/01/18 03:51:24;;;;;;;10.52;2.30;;;;;;;;;;4956054;29;20534;-65
2022/01/18 03:53:51;;;;;;;8.70;2.15;;;;;;;;;;4956038;29;20507;-64
2022/01/18 03:56:17;;;;;;;6.63;2.10;;;;;;;;;;4956095;29;20028;-64
2022/01/18 03:58:43;;;;;;;4.53;1.70;;;;;;;;;;4956141;29;20031;-64
2022/01/18 04:01:10;;;;;;;6.50;2.05;;;;;;;;;;4955816;29;20035;-64
2022/01/18 04:03:36;;;;;;;5.47;1.95;;;;;;;;;;4955799;29;20468;-64
2022/01/18 04:06:02;;;;;;;6.40;1.90;;;;;;;;;;4955607;29;20491;-64
2022/01/18 04:08:28;;;;;;;4.93;1.98;;;;;;;;;;4955565;29;20024;-65
2022/01/18 04:10:54;;;;;;;7.05;2.55;;;;;;;;;;4955603;29;20403;-64
2022/01/18 04:13:20;;;;;;;6.25;1.83;;;;;;;;;;4955529;29;20391;-64
2022/01/18 04:15:46;;;;;;;7.45;2.10;;;;;;;;;;4955110;29;20411;-63
2022/01/18 04:28:49;;;;;;;9.70;3.38;;;;;;;;;;4955163;28;20031;-62
2022/01/18 04:31:15;;;;;;;9.27;2.53;;;;;;;;;;4955303;29;20050;-65
2022/01/18 04:33:41;;;;;;;10.95;2.75;;;;;;;;;;4955362;29;20102;-63
2022/01/18 04:36:08;;;;;;;6.80;2.53;;;;;;;;;;4955087;28;20083;-64
2022/01/18 04:38:35;;;;;;;8.57;2.40;;;;;;;;;;4954925;29;20030;-62
2022/01/18 04:41:06;;;;;;;7.28;2.25;;;;;;;;;;4955220;29;20067;-64
2022/01/18 04:48:56;;;;;;;5.93;2.00;;;;;;;;;;4954919;29;20050;-63
2022/01/18 04:51:22;;;;;;;5.63;1.85;;;;;;;;;;4954803;28;20120;-63
2022/01/18 04:53:53;;;;;;;5.32;2.30;;;;;;;;;;4954833;29;20094;-65
2022/01/18 04:56:28;;;;;;;5.43;1.92;;;;;;;;;;4954653;29;20413;-62
2022/01/18 04:58:54;;;;;;;6.72;2.10;;;;;;;;;;4954635;29;20030;-65
2022/01/18 05:01:20;;;;;;;4.70;1.95;;;;;;;;;;4954584;29;20492;-63
2022/01/18 05:03:46;;;;;;;5.32;1.98;;;;;;;;;;4954724;29;20027;-61
2022/01/18 05:06:16;;;;;;;8.60;2.10;;;;;;;;;;4954403;29;20034;-65
2022/01/18 05:08:42;;;;;;;11.10;2.80;;;;;;;;;;4953799;29;20114;-62
2022/01/18 05:11:13;;;;;;;6.80;2.38;;;;;;;;;;4954393;29;20500;-64
2022/01/18 05:14:13;;;;;;;8.10;2.80;;;;;;;;;;4954565;29;20483;-64
2022/01/18 05:24:19;;;;;;;10.40;3.85;;;;;;;;;;4954248;29;20554;-64
2022/01/18 05:26:45;;;;;;;12.80;3.92;;;;;;;;;;4954310;29;20031;-64
2022/01/18 05:29:11;;;;;;;9.73;3.38;;;;;;;;;;4954180;28;20035;-65
2022/01/18 05:31:37;;;;;;;7.85;2.78;;;;;;;;;;4953981;29;20081;-64
2022/01/18 05:34:03;;;;;;;11.93;3.75;;;;;;;;;;4953998;29;20035;-64
2022/01/18 05:36:29;;;;;;;9.93;3.50;;;;;;;;;;4953707;29;20055;-65
2022/01/18 05:38:55;;;;;;;8.80;2.85;;;;;;;;;;4953914;29;20331;-64
2022/01/18 05:41:21;;;;;;;6.80;2.47;;;;;;;;;;4953882;29;20528;-64
2022/01/18 05:43:47;;;;;;;10.60;4.15;;;;;;;;;;4954036;29;20428;-64
2022/01/18 05:46:13;;;;;;;7.50;3.40;;;;;;;;;;4953908;29;20031;-64
2022/01/18 05:48:39;;;;;;;7.00;2.95;;;;;;;;;;4953815;29;20102;-65
2022/01/18 05:51:05;;;;;;;7.55;3.38;;;;;;;;;;4953876;29;20043;-64
2022/01/18 05:53:33;;;;;;;9.20;4.20;;;;;;;;;;4954086;29;20047;-64
2022/01/18 05:55:59;;;;;;;8.90;3.63;;;;;;;;;;4953613;29;20041;-63
2022/01/18 05:58:25;;;;;;;9.40;3.05;;;;;;;;;;4953565;29;20031;-65
2022/01/18 06:00:55;;;;;;;8.40;2.95;;;;;;;;;;4953512;29;20039;-66
2022/01/18 06:03:32;;;;;;;6.13;2.38;;;;;;;;;;4953107;28;20023;-63
2022/01/18 06:08:43;;;;;;;7.70;2.25;;;;;;;;;;4953845;29;20046;-65
2022/01/18 06:11:09;;;;;;;16.08;6.35;;;;;;;;;;4953287;29;20039;-66
2022/01/18 06:13:36;;;;;;;13.10;4.90;;;;;;;;;;4953619;29;20023;-66
2022/01/18 06:16:02;;;;;;;18.77;8.48;;;;;;;;;;4953563;29;20035;-64
2022/01/18 06:18:28;;;;;;;17.08;6.93;;;;;;;;;;4953213;29;20034;-66
2022/01/18 06:20:54;;;;;;;12.15;4.80;;;;;;;;;;4946168;29;20079;-64
2022/01/18 06:23:21;;;;;;;11.10;4.88;;;;;;;;;;4941816;29;20075;-64
2022/01/18 06:25:47;;;;;;;13.32;4.90;;;;;;;;;;4942383;29;20070;-61
2022/01/18 06:28:13;;;;;;;11.27;4.80;;;;;;;;;;4943211;29;20028;-64
2022/01/18 06:30:39;;;;;;;13.18;4.90;;;;;;;;;;4940972;29;20067;-64
2022/01/18 06:33:05;;;;;;;16.65;5.60;;;;;;;;;;4942896;29;20043;-63
2022/01/18 06:35:31;;;;;;;21.13;5.00;;;;;;;;;;4942797;29;20204;-64
2022/01/18 06:37:57;;;;;;;12.77;4.28;;;;;;;;;;4940954;29;20070;-64
2022/01/18 06:40:24;;;;;;;10.95;3.67;;;;;;;;;;4942783;29;20023;-63
2022/01/18 06:42:50;;;;;;;12.32;3.83;;;;;;;;;;4942463;29;20074;-64
2022/01/18 06:45:16;;;;;;;9.73;4.18;;;;;;;;;;4941018;29;20019;-64
2022/01/18 06:47:42;;;;;;;8.90;4.20;;;;;;;;;;4942230;29;20023;-64
2022/01/18 06:50:12;;;;;;;11.52;4.20;;;;;;;;;;4942683;29;20098;-64
2022/01/18 06:52:41;;;;;;;14.57;4.32;;;;;;;;;;4941033;29;20117;-64
2022/01/18 06:55:08;;;;;;;10.90;3.70;;;;;;;;;;4942206;29;20028;-63
2022/01/18 06:57:34;;;;;;;9.63;4.28;;;;;;;;;;4943178;29;20045;-65
2022/01/18 07:00:01;;;;;;;9.55;4.03;;;;;;;;;;4940770;29;20071;-64
2022/01/18 07:02:27;;;;;;;11.80;4.43;;;;;;;;;;4941966;29;20503;-64
2022/01/18 07:04:53;;;;;;;10.70;4.00;;;;;;;;;;4942567;29;20031;-63
2022/01/18 07:07:19;;;;;;;14.80;4.35;;;;;;;;;;4940998;29;20047;-64
2022/01/18 07:09:45;;;;;;;10.30;3.60;;;;;;;;;;4942033;29;20027;-63
2022/01/18 07:12:12;;;;;;;11.25;4.45;;;;;;;;;;4942614;29;20035;-63
2022/01/18 07:14:41;;;;;;;13.23;5.03;;;;;;;;;;4941111;28;20103;-64
2022/01/18 07:17:08;;;;;;;10.77;4.97;;;;;;;;;;4945480;29;20498;-63
2022/01/18 07:19:34;;;;;;;13.25;5.05;;;;;;;;;;4946469;29;20055;-64
2022/01/18 07:22:00;;;;;;;16.48;5.50;;;;;;;;;;4944571;29;20034;-64
2022/01/18 07:24:38;;;;;;;13.27;5.15;;;;;;;;;;4945724;29;20019;-63
2022/01/18 07:27:08;;;;;;;13.75;5.38;;;;;;;;;;4945161;29;20024;-60
2022/01/18 07:29:34;;;;;;;14.27;5.25;;;;;;;;;;4944930;28;20063;-60
2022/01/18 07:32:00;;;;;;;11.60;4.95;;;;;;;;;;4946424;29;20491;-61
2022/01/18 07:34:27;;;;;;;12.95;4.72;;;;;;;;;;4943865;29;20015;-61
2022/01/18 07:36:53;;;;;;;12.77;4.20;;;;;;;;;;4942146;29;20036;-61
2022/01/18 07:39:19;;;;;;;10.20;4.15;;;;;;;;;;4946023;29;20027;-60
2022/01/18 07:41:45;;;;;;;19.70;8.10;;;;;;;;;;4945504;29;20114;-60
2022/01/18 07:44:11;;;;;;;18.83;7.65;;;;;;;;;;4944703;29;20155;-60
2022/01/18 07:46:37;;;;;;;18.80;7.55;;;;;;;;;;4944493;29;20023;-60
2022/01/18 07:49:03;;;;;;;19.77;7.15;;;;;;;;;;4945237;29;20057;-62
2022/01/18 07:51:29;;;;;;;19.92;7.78;;;;;;;;;;4945719;29;20361;-60
2022/01/18 07:53:55;;;;;;;16.00;7.15;;;;;;;;;;4944309;29;20059;-61
2022/01/18 07:56:21;;;;;;;17.77;6.28;;;;;;;;;;4945258;29;20039;-60
2022/01/18 07:58:47;;;;;;;22.40;6.82;;;;;;;;;;4945189;29;20027;-60
2022/01/18 08:01:13;;;;;;;14.15;6.40;;;;;;;;;;4943478;29;20068;-61
2022/01/18 08:03:39;;;;;;;15.05;5.88;;;;;;;;;;4945540;29;20062;-60
2022/01/18 08:06:05;;;;;;;14.15;5.82;;;;;;;;;;4944884;29;20030;-60
2022/01/18 08:08:32;;;;;;;16.23;6.20;;;;;;;;;;4941360;29;20028;-60
2022/01/18 08:10:58;;;;;;;13.90;6.13;;;;;;;;;;4936472;29;20477;-61
2022/01/18 08:13:29;;;;;;;16.52;5.75;;;;;;;;;;4936282;29;20031;-60
2022/01/18 08:16:11;;;;;;;11.13;5.10;;;;;;;;;;4936499;29;20031;-60
2022/01/18 08:18:37;;;;;;;13.68;4.70;;;;;;;;;;4936506;29;20070;-59
2022/01/18 08:21:03;;;;;;;12.98;4.93;;;;;;;;;;4936322;29;20024;-60
2022/01/18 08:23:29;;;;;;;32.30;11.52;;;;;;;;;;4935709;29;20034;-60
2022/01/18 08:25:55;;;;;;;21.98;7.90;;;;;;;;;;4918757;29;20139;-60
2022/01/18 08:28:21;;;;;;;15.45;5.88;;;;;;;;;;4935228;29;20063;-60
2022/01/18 08:30:47;;;;;;;10.98;4.57;;;;;;;;;;4935738;29;20059;-60
2022/01/18 08:33:14;;;;;;;14.32;4.75;;;;;;;;;;4936042;29;20472;-60
2022/01/18 08:35:40;;;;;;;11.43;5.15;;;;;;;;;;4936039;29;20083;-60
2022/01/18 08:38:06;;;;;;;14.68;5.18;;;;;;;;;;4935590;29;20032;-60
2022/01/18 08:40:32;;;;;;;12.15;5.30;;;;;;;;;;4936011;29;20087;-60
2022/01/18 08:42:59;;;;;;;17.67;8.02;;;;;;;;;;4935736;29;20123;-60
2022/01/18 08:45:25;;;;;;;12.75;5.47;;;;;;;;;;4935960;29;20036;-60
2022/01/18 08:47:51;;;;;;;12.75;6.00;;;;;;;;;;4918731;29;20059;-59
2022/01/18 08:50:18;;;;;;;18.10;6.75;;;;;;;;;;4935814;29;20067;-60
2022/01/18 08:52:44;;;;;;;16.65;5.88;;;;;;;;;;4918613;29;20020;-60
2022/01/18 08:55:11;;;;;;;92.35;37.20;;;;;;;;;;4935612;29;20038;-59
2022/01/18 08:57:37;;;;;;;52.45;21.10;;;;;;;;;;4935461;29;20024;-61
2022/01/18 09:00:04;;;;;;;26.00;12.00;;;;;;;;;;4935800;29;20102;-60
2022/01/18 09:02:30;;;;;;;16.10;6.47;;;;;;;;;;4935364;29;20031;-60
2022/01/18 09:04:56;;;;;;;21.08;8.48;;;;;;;;;;4935379;29;20063;-60
2022/01/18 09:07:23;;;;;;;17.75;6.82;;;;;;;;;;4935361;29;20032;-60
2022/01/18 09:09:54;;;;;;;14.23;6.13;;;;;;;;;;4934979;29;20039;-61
2022/01/18 09:12:20;;;;;;;16.38;5.85;;;;;;;;;;4935293;29;20328;-59
2022/01/18 09:14:47;;;;;;;15.32;5.80;;;;;;;;;;4935227;29;20028;-59
2022/01/18 09:17:13;;;;;;;18.52;5.85;;;;;;;;;;4934950;29;20086;-61
2022/01/18 09:19:39;;;;;;;13.75;5.10;;;;;;;;;;4934823;29;20031;-59
2022/01/18 09:22:05;;;;;;;16.95;5.18;;;;;;;;;;4935204;29;20182;-59
2022/01/18 09:24:32;;;;;;;19.67;7.97;;;;;;;;;;4935003;29;20028;-59
2022/01/18 09:27:00;;;;;;;16.63;5.63;;;;;;;;;;4934951;29;20090;-59
2022/01/18 09:29:26;;;;;;;19.40;6.05;;;;;;;;;;4935122;29;20115;-60
2022/01/18 09:31:52;;;;;;;16.45;5.78;;;;;;;;;;4934588;29;20087;-60
2022/01/18 09:34:18;;;;;;;15.75;5.70;;;;;;;;;;4934867;29;20027;-61
2022/01/18 09:36:44;;;;;;;11.63;4.60;;;;;;;;;;4934494;29;20061;-60
2022/01/18 09:39:10;;;;;;;13.70;4.93;;;;;;;;;;4934460;29;20034;-60
2022/01/18 09:41:40;;;;;;;12.07;5.25;;;;;;;;;;4934872;29;20115;-60
2022/01/18 09:44:07;;;;;;;12.20;4.85;;;;;;;;;;4934416;29;20055;-62
2022/01/18 09:46:33;;;;;;;11.00;4.65;;;;;;;;;;4934522;29;20034;-60
2022/01/18 09:49:00;;;;;;;57.38;23.48;;;;;;;;;;4934328;29;20031;-60
2022/01/18 09:51:28;;;;;;;43.42;18.95;;;;;;;;;;4934714;29;20488;-61
2022/01/18 09:53:55;;;;;;;19.15;7.20;;;;;;;;;;4942344;29;20446;-59
2022/01/18 09:56:22;;;;;;;18.98;5.68;;;;;;;;;;4944064;29;20055;-60
2022/01/18 09:58:48;;;;;;;18.13;5.75;;;;;;;;;;4942014;28;20059;-60
2022/01/18 10:01:14;;;;;;;15.48;5.95;;;;;;;;;;4945036;29;20091;-60
2022/01/18 10:03:43;;;;;;;15.82;5.28;;;;;;;;;;4942042;29;20075;-61
2022/01/18 10:06:10;;;;;;;17.00;4.97;;;;;;;;;;4942281;29;20121;-60
2022/01/18 10:08:39;;;;;;;59.17;20.83;;;;;;;;;;4942189;29;20031;-59
2022/01/18 10:11:10;;;;;;;25.70;9.18;;;;;;;;;;4943578;29;20027;-60
2022/01/18 10:13:37;;;;;;;25.30;7.45;;;;;;;;;;4942697;29;20391;-58
2022/01/18 10:16:03;;;;;;;20.45;5.95;;;;;;;;;;4941516;29;20036;-62
2022/01/18 10:18:34;;;;;;;19.13;11.13;;;;;;;;;;4942838;29;20039;-59
2022/01/18 10:21:00;;;;;;;19.38;7.80;;;;;;;;;;4942311;29;20024;-58
2022/01/18 10:23:26;;;;;;;16.17;4.93;;;;;;;;;;4941212;29;20058;-59
2022/01/18 10:25:53;;;;;;;20.80;7.00;;;;;;;;;;4942742;29;20039;-58
2022/01/18 10:28:48;;;;;;;17.27;5.28;;;;;;;;;;4942998;28;20023;-61
2022/01/18 10:31:54;;;;;;;12.93;3.83;;;;;;;;;;4875171;29;20077;-61
2022/01/18 10:34:42;;;;;;;13.65;4.15;;;;;;;;;;4874994;29;20113;-62
2022/01/18 10:37:09;;;;;;;11.70;4.50;;;;;;;;;;4874938;29;20044;-61
2022/01/18 10:39:37;;;;;;;13.35;4.60;;;;;;;;;;4866161;29;20032;-59
2022/01/18 10:42:23;;;;;;;12.27;5.05;;;;;;;;;;4864634;29;20049;-63
2022/01/18 10:44:59;;;;;;;21.35;8.18;;;;;;;;;;4866680;29;20032;-59
2022/01/18 10:47:26;;;;;;;24.75;9.05;;;;;;;;;;4866703;29;20425;-58
2022/01/18 10:49:52;;;;;;;27.55;7.82;;;;;;;;;;4863728;29;20033;-61
2022/01/18 10:52:21;;;;;;;19.55;6.80;;;;;;;;;;4872585;29;20119;-60
2022/01/18 10:54:51;;;;;;;17.38;7.53;;;;;;;;;;4874974;29;20478;-61
2022/01/18 10:57:19;;;;;;;15.80;6.82;;;;;;;;;;4876751;29;20725;-59
2022/01/18 10:59:45;;;;;;;14.73;5.90;;;;;;;;;;4869417;29;20131;-61
2022/01/18 11:02:13;;;;;;;14.18;4.70;;;;;;;;;;4869861;29;20793;-61
2022/01/18 11:04:43;;;;;;;14.25;5.53;;;;;;;;;;4875500;29;20037;-61
2022/01/18 11:07:10;;;;;;;9.63;3.83;;;;;;;;;;4887607;29;20478;-61
2022/01/18 11:09:36;;;;;;;9.13;3.72;;;;;;;;;;4944445;29;20542;-61
2022/01/18 11:12:04;;;;;;;11.32;4.28;;;;;;;;;;4956844;29;20047;-61
2022/01/18 11:14:32;;;;;;;13.68;3.95;;;;;;;;;;4956411;29;20475;-61
2022/01/18 11:16:59;;;;;;;15.75;4.28;;;;;;;;;;4952283;29;20451;-61
2022/01/18 11:21:56;;;;;;;17.38;6.13;;;;;;;;;;4937240;29;20042;-60
2022/01/18 11:24:22;;;;;;;14.70;5.63;;;;;;;;;;4944066;29;20019;-58
2022/01/18 11:26:49;;;;;;;18.77;5.90;;;;;;;;;;4939493;29;20492;-64
2022/01/18 11:29:39;;;;;;;19.00;7.38;;;;;;;;;;4936957;29;20094;-61
2022/01/18 11:32:06;;;;;;;28.77;10.20;;;;;;;;;;4936773;29;20114;-61
2022/01/18 11:34:37;;;;;;;35.55;12.30;;;;;;;;;;4936563;29;20107;-61
2022/01/18 11:37:26;;;;;;;34.67;12.32;;;;;;;;;;4936866;29;20043;-62
2022/01/18 11:39:58;;;;;;;29.42;10.70;;;;;;;;;;4859234;29;20045;-62
2022/01/18 11:42:36;;;;;;;33.22;12.30;;;;;;;;;;4852475;29;20530;-62
2022/01/18 11:45:24;;;;;;;31.90;12.05;;;;;;;;;;4851894;29;20371;-60
2022/01/18 11:47:59;;;;;;;33.67;13.02;;;;;;;;;;4850624;29;20042;-61
2022/01/18 11:50:33;;;;;;;35.88;15.32;;;;;;;;;;4858706;29;20144;-62
2022/01/18 11:53:24;;;;;;;19.08;5.88;;;;;;;;;;4859343;29;20030;-63
2022/01/18 11:55:51;;;;;;;18.17;4.18;;;;;;;;;;4859515;29;20030;-63
2022/01/18 11:58:18;;;;;;;12.93;4.55;;;;;;;;;;4859062;29;20060;-63
2022/01/18 12:01:03;;;;;;;26.25;11.75;;;;;;;;;;4859152;29;20402;-63
2022/01/18 12:03:41;;;;;;;18.10;7.18;;;;;;;;;;4859129;29;20041;-63
2022/01/18 12:06:08;;;;;;;16.63;7.68;;;;;;;;;;4858788;29;20104;-64
2022/01/18 12:08:36;;;;;;;24.73;10.15;;;;;;;;;;4859034;29;20390;-63
2022/01/18 12:11:28;;;;;;;18.88;6.88;;;;;;;;;;4858737;29;20049;-63
2022/01/18 12:13:58;;;;;;;16.30;5.50;;;;;;;;;;4858878;29;20077;-63
2022/01/18 12:16:29;;;;;;;15.27;5.93;;;;;;;;;;4888602;29;20280;-63
2022/01/18 12:18:57;;;;;;;17.35;5.10;;;;;;;;;;4955169;29;20023;-63
2022/01/18 12:21:26;;;;;;;12.68;4.10;;;;;;;;;;4955510;29;20488;-63
2022/01/18 12:23:52;;;;;;;12.40;4.00;;;;;;;;;;4955116;29;20108;-63
2022/01/18 12:26:29;;;;;;;13.98;4.38;;;;;;;;;;4954887;29;20031;-63
2022/01/18 12:37:08;;;;;;;11.73;2.88;;;;;;;;;;4954786;29;20051;-63
2022/01/18 12:40:08;;;;;;;13.32;3.05;;;;;;;;;;4954748;29;20097;-63
2022/01/18 12:45:05;;;;;;;14.45;4.93;;;;;;;;;;4954567;29;20031;-63
2022/01/18 12:47:35;;;;;;;20.60;6.35;;;;;;;;;;4954642;29;20046;-63
2022/01/18 12:50:01;;;;;;;26.02;8.60;;;;;;;;;;4937153;29;20032;-63
2022/01/18 12:52:29;;;;;;;35.70;12.80;;;;;;;;;;4954528;29;20075;-63
2022/01/18 12:54:55;;;;;;;21.83;7.15;;;;;;;;;;4954676;29;20019;-64
2022/01/18 12:57:22;;;;;;;17.73;4.55;;;;;;;;;;4954496;29;20039;-63
2022/01/18 12:59:58;;;;;;;15.80;5.40;;;;;;;;;;4954545;29;20039;-63
2022/01/18 13:02:24;;;;;;;18.80;5.78;;;;;;;;;;4954391;29;20031;-64
2022/01/18 13:04:57;;;;;;;18.33;4.88;;;;;;;;;;4954490;29;20027;-63
2022/01/18 13:07:23;;;;;;;14.45;4.30;;;;;;;;;;4952161;29;20079;-63
2022/01/18 13:09:55;;;;;;;17.90;5.03;;;;;;;;;;4934762;29;20111;-63
2022/01/18 13:12:31;;;;;;;18.40;6.25;;;;;;;;;;4934454;29;20495;-63
2022/01/18 13:14:59;;;;;;;14.90;4.55;;;;;;;;;;4935371;29;20067;-63
2022/01/18 13:23:27;;;;;;;20.30;7.65;;;;;;;;;;4935110;29;20042;-63
2022/01/18 13:25:58;;;;;;;14.85;6.43;;;;;;;;;;4934534;29;20036;-63
2022/01/18 13:28:34;;;;;;;15.13;4.45;;;;;;;;;;4934889;29;20392;-63
2022/01/18 13:31:16;;;;;;;13.20;4.07;;;;;;;;;;4934802;29;20048;-63
2022/01/18 13:33:52;;;;;;;15.18;5.15;;;;;;;;;;4935013;29;20039;-62
2022/01/18 13:36:20;;;;;;;18.98;4.57;;;;;;;;;;4934445;29;20062;-62
2022/01/18 13:38:46;;;;;;;24.42;9.43;;;;;;;;;;4935060;29;20111;-62
2022/01/18 13:41:12;;;;;;;18.20;6.05;;;;;;;;;;4940553;29;20028;-62
2022/01/18 13:43:38;;;;;;;17.60;5.22;;;;;;;;;;4953117;29;20122;-63
2022/01/18 13:46:05;;;;;;;17.70;4.45;;;;;;;;;;4953593;29;20027;-62
2022/01/18 13:48:32;;;;;;;19.92;5.78;;;;;;;;;;4953561;29;20031;-63
2022/01/18 13:50:58;;;;;;;20.95;5.00;;;;;;;;;;4953487;29;20110;-63
2022/01/18 13:53:32;;;;;;;16.30;4.90;;;;;;;;;;4953284;29;20031;-63
2022/01/18 13:55:59;;;;;;;15.70;5.28;;;;;;;;;;4953307;29;20497;-63
2022/01/18 13:58:26;;;;;;;17.65;4.80;;;;;;;;;;4953357;29;20031;-63
2022/01/18 14:00:53;;;;;;;17.27;5.10;;;;;;;;;;4953047;29;20036;-63
2022/01/18 14:03:36;;;;;;;17.15;5.15;;;;;;;;;;4953166;29;20479;-63
2022/01/18 14:06:02;;;;;;;21.67;7.47;;;;;;;;;;4953289;29;20038;-63
2022/01/18 14:08:36;;;;;;;28.05;7.63;;;;;;;;;;4953376;29;20110;-62
2022/01/18 14:11:03;;;;;;;21.35;6.43;;;;;;;;;;4953340;29;20038;-61
2022/01/18 14:13:35;;;;;;;16.67;6.15;;;;;;;;;;4953110;29;20027;-60
2022/01/18 14:16:02;;;;;;;17.00;5.32;;;;;;;;;;4953580;29;20039;-61
2022/01/18 14:18:28;;;;;;;13.80;5.55;;;;;;;;;;4953085;29;20028;-63
2022/01/18 14:20:54;;;;;;;15.23;4.70;;;;;;;;;;4953353;29;20110;-61
2022/01/18 14:23:21;;;;;;;16.08;5.00;;;;;;;;;;4953068;29;20136;-61
2022/01/18 14:25:48;;;;;;;17.77;5.57;;;;;;;;;;4952454;28;20032;-61
2022/01/18 14:28:15;;;;;;;17.98;5.63;;;;;;;;;;4953193;29;20038;-62
2022/01/18 14:30:43;;;;;;;14.40;4.55;;;;;;;;;;4953586;29;20043;-62
2022/01/18 14:33:11;;;;;;;24.60;7.40;;;;;;;;;;4952997;29;20051;-62
2022/01/18 14:35:38;;;;;;;20.35;7.10;;;;;;;;;;4952878;28;20051;-61
2022/01/18 14:38:06;;;;;;;20.13;8.30;;;;;;;;;;4952960;29;20038;-60
2022/01/18 14:40:36;;;;;;;21.27;7.90;;;;;;;;;;4952843;29;20038;-62
2022/01/18 14:43:12;;;;;;;22.20;10.20;;;;;;;;;;4952660;29;20023;-61
2022/01/18 14:45:43;;;;;;;21.70;7.30;;;;;;;;;;4952818;29;20122;-62
2022/01/18 14:48:10;;;;;;;29.13;8.20;;;;;;;;;;4952725;29;20506;-61
2022/01/18 14:50:38;;;;;;;28.42;10.23;;;;;;;;;;4952569;29;20035;-61
2022/01/18 14:53:05;;;;;;;24.48;8.70;;;;;;;;;;4952863;29;20016;-61
2022/01/18 14:55:32;;;;;;;27.33;9.57;;;;;;;;;;4952723;29;20051;-61
2022/01/18 14:57:59;;;;;;;24.40;8.82;;;;;;;;;;4952789;29;20106;-62
2022/01/18 15:00:25;;;;;;;30.77;11.05;;;;;;;;;;4952698;29;20432;-62
2022/01/18 15:02:53;;;;;;;30.95;10.68;;;;;;;;;;4952921;29;20078;-62
2022/01/18 15:05:19;;;;;;;16.63;6.43;;;;;;;;;;4953070;29;20459;-62
2022/01/18 15:07:46;;;;;;;27.33;8.77;;;;;;;;;;4952811;29;20034;-62
2022/01/18 15:10:12;;;;;;;14.35;5.78;;;;;;;;;;4952713;29;20121;-62
2022/01/18 15:12:39;;;;;;;20.77;5.75;;;;;;;;;;4952786;29;20038;-62
2022/01/18 15:15:06;;;;;;;17.67;5.18;;;;;;;;;;4952885;29;20058;-63
2022/01/18 15:17:32;;;;;;;20.40;5.95;;;;;;;;;;4952528;29;20085;-59
2022/01/18 15:19:58;;;;;;;22.75;6.53;;;;;;;;;;4952881;29;20027;-60
2022/01/18 15:22:24;;;;;;;16.10;5.40;;;;;;;;;;4953635;29;20031;-61
2022/01/18 15:24:50;;;;;;;18.25;5.55;;;;;;;;;;4952262;29;20031;-61
2022/01/18 15:27:17;;;;;;;23.10;6.00;;;;;;;;;;4951475;29;20027;-62
2022/01/18 15:29:43;;;;;;;26.77;8.10;;;;;;;;;;4951749;29;20027;-62
2022/01/18 15:32:09;;;;;;;19.30;5.68;;;;;;;;;;4952199;29;20102;-62
2022/01/18 15:34:35;;;;;;;21.15;5.80;;;;;;;;;;4952404;29;20024;-62
2022/01/18 15:37:01;;;;;;;18.55;5.38;;;;;;;;;;4954956;28;20129;-62
2022/01/18 15:39:27;;;;;;;18.48;5.50;;;;;;;;;;4955906;29;20025;-62
2022/01/18 15:41:53;;;;;;;23.88;7.05;;;;;;;;;;4956229;29;20399;-62
2022/01/18 15:44:19;;;;;;;20.38;6.22;;;;;;;;;;4956045;29;20098;-61
2022/01/18 15:46:46;;;;;;;22.08;7.90;;;;;;;;;;4956234;29;20053;-62
2022/01/18 15:49:12;;;;;;;24.58;8.25;;;;;;;;;;4955931;29;20031;-64
2022/01/18 15:51:38;;;;;;;27.13;9.80;;;;;;;;;;4956093;29;20070;-63
2022/01/18 15:54:04;;;;;;;30.77;11.07;;;;;;;;;;4955797;29;20038;-64
2022/01/18 15:56:30;;;;;;;32.72;10.90;;;;;;;;;;4956176;29;20038;-63
2022/01/18 15:58:57;;;;;;;32.45;13.55;;;;;;;;;;4955669;29;20475;-63
2022/01/18 16:01:23;;;;;;;32.88;11.88;;;;;;;;;;4955688;29;20153;-63
2022/01/18 16:03:49;;;;;;;35.03;14.43;;;;;;;;;;4955732;29;20494;-65
2022/01/18 16:06:15;;;;;;;29.17;11.18;;;;;;;;;;4955828;29;20054;-64
2022/01/18 16:08:41;;;;;;;26.85;11.20;;;;;;;;;;4938187;29;20348;-64